Time;durP1;ratioP1;P1;durP2;ratioP2;P2;SDS_P1;SDS_P2;PMS_P1;PMS_P2;Temp;Humidity;BMP_temperature;BMP_pressure;BME280_temperature;BME280_humidity;BME280_pressure;Samples;Min_cycle;Max_cycle;Signal;HPM_P1;HPM_P2
2021/04/15 00:00:00;;;;;;;10.40;9.40;;;7.60;94.30;;;;;;5032578;28;20423;-88
2021/04/15 00:02:26;;;;;;;10.10;9.10;;;7.70;94.30;;;;;;5030339;28;20259;-86
2021/04/15 00:04:52;;;;;;;10.53;9.50;;;7.60;94.20;;;;;;5031728;28;20241;-87
2021/04/15 00:07:18;;;;;;;11.13;9.80;;;7.70;94.20;;;;;;5030834;28;20918;-84
2021/04/15 00:09:43;;;;;;;11.10;10.10;;;7.70;94.20;;;;;;5032383;28;20303;-80
2021/04/15 00:12:09;;;;;;;10.80;9.77;;;7.60;94.10;;;;;;5031477;28;20264;-82
2021/04/15 00:14:37;;;;;;;11.80;10.60;;;7.60;93.90;;;;;;5034703;28;20208;-80
2021/04/15 00:17:02;;;;;;;10.20;9.20;;;7.70;94.00;;;;;;5040233;28;20177;-80
2021/04/15 00:19:28;;;;;;;11.93;9.43;;;7.60;93.80;;;;;;5039694;28;20401;-81
2021/04/15 00:21:54;;;;;;;11.43;10.27;;;7.60;93.70;;;;;;5038857;28;20186;-80
2021/04/15 00:24:20;;;;;;;11.63;9.33;;;7.60;93.50;;;;;;5032497;28;20389;-81
2021/04/15 00:26:45;;;;;;;13.37;11.30;;;7.50;93.70;;;;;;5031445;28;20194;-81
2021/04/15 00:29:11;;;;;;;10.67;9.77;;;7.20;93.90;;;;;;5030619;28;20194;-81
2021/04/15 00:31:37;;;;;;;11.70;10.50;;;7.10;94.30;;;;;;5032118;28;20174;-79
2021/04/15 00:34:03;;;;;;;11.73;10.53;;;7.00;94.60;;;;;;5031511;28;20606;-80
2021/04/15 00:36:28;;;;;;;10.70;9.60;;;6.90;94.90;;;;;;5031207;28;20341;-80
2021/04/15 00:38:55;;;;;;;10.90;9.57;;;7.00;95.00;;;;;;5031886;28;20213;-80
2021/04/15 00:41:22;;;;;;;10.17;9.27;;;7.10;94.90;;;;;;5031453;28;20189;-80
2021/04/15 00:43:48;;;;;;;10.80;9.87;;;7.00;94.50;;;;;;5030490;28;20407;-79
2021/04/15 00:46:37;;;;;;;10.50;9.50;;;7.00;94.40;;;;;;5030926;28;20457;-80
2021/04/15 00:49:03;;;;;;;11.47;10.37;;;7.00;94.30;;;;;;5031607;28;20518;-79
2021/04/15 00:51:39;;;;;;;12.10;10.90;;;7.00;94.10;;;;;;5030941;28;20788;-80
2021/04/15 00:54:43;;;;;;;11.20;10.00;;;7.00;93.90;;;;;;5031800;28;20353;-80
2021/04/15 00:57:21;;;;;;;11.30;10.30;;;7.00;93.80;;;;;;5030669;28;20391;-83
2021/04/15 00:59:47;;;;;;;10.95;9.95;;;6.90;93.80;;;;;;5031464;28;20384;-80
2021/04/15 01:02:16;;;;;;;10.53;9.63;;;6.90;94.00;;;;;;5030834;28;20225;-80
2021/04/15 01:04:42;;;;;;;11.00;9.90;;;6.90;94.10;;;;;;5030278;28;20477;-79
2021/04/15 01:07:08;;;;;;;11.30;10.20;;;6.90;94.10;;;;;;5031265;28;20401;-83
2021/04/15 01:09:34;;;;;;;9.90;9.00;;;6.80;94.10;;;;;;5035551;28;20387;-79
2021/04/15 01:12:28;;;;;;;10.57;9.60;;;6.90;94.30;;;;;;5034277;28;20191;-79
2021/04/15 01:15:15;;;;;;;10.82;9.77;;;6.80;94.20;;;;;;5035481;28;20241;-79
2021/04/15 01:17:51;;;;;;;10.30;9.30;;;6.80;93.80;;;;;;5035622;28;20175;-79
2021/04/15 01:20:20;;;;;;;9.60;8.70;;;6.80;94.10;;;;;;5034574;28;20773;-80
2021/04/15 01:22:52;;;;;;;10.93;9.82;;;6.80;94.40;;;;;;5035745;28;20409;-79
2021/04/15 01:25:30;;;;;;;10.60;9.52;;;6.80;94.00;;;;;;5032992;28;20199;-79
2021/04/15 01:28:20;;;;;;;9.50;8.60;;;6.70;93.80;;;;;;5033908;28;20173;-79
2021/04/15 01:30:53;;;;;;;10.60;9.60;;;6.70;93.70;;;;;;5019765;28;20402;-78
2021/04/15 01:33:41;;;;;;;9.88;9.00;;;6.60;93.70;;;;;;5014602;28;20234;-78
2021/04/15 01:36:17;;;;;;;12.55;10.68;;;6.60;94.10;;;;;;5015594;28;20164;-80
2021/04/15 01:38:48;;;;;;;12.00;10.68;;;6.60;94.40;;;;;;5014178;28;20163;-80
2021/04/15 01:41:23;;;;;;;13.07;11.75;;;6.60;94.70;;;;;;5014692;28;20608;-85
2021/04/15 01:43:54;;;;;;;11.98;10.80;;;6.50;95.10;;;;;;5025790;28;20189;-79
2021/04/15 01:46:26;;;;;;;11.80;10.60;;;6.30;95.50;;;;;;5032237;28;20281;-80
2021/04/15 01:48:53;;;;;;;11.80;10.70;;;6.30;96.00;;;;;;5034677;28;20512;-80
2021/04/15 01:51:39;;;;;;;11.50;10.38;;;6.30;96.20;;;;;;5049454;28;20177;-80
2021/04/15 01:54:28;;;;;;;11.90;10.77;;;6.40;96.20;;;;;;5034382;28;20638;-80
2021/04/15 01:57:09;;;;;;;11.93;10.73;;;6.50;96.10;;;;;;5035035;28;20235;-80
2021/04/15 01:59:44;;;;;;;13.13;10.38;;;6.60;96.10;;;;;;5034164;28;20176;-81
2021/04/15 02:02:21;;;;;;;11.40;10.33;;;6.70;96.00;;;;;;5033533;28;20527;-80
2021/04/15 02:04:59;;;;;;;11.52;10.38;;;6.80;95.80;;;;;;5034562;28;20471;-80
2021/04/15 02:07:29;;;;;;;11.63;10.63;;;6.80;95.80;;;;;;5033303;28;20167;-81
2021/04/15 02:09:57;;;;;;;11.50;10.40;;;6.80;95.40;;;;;;5034520;28;20211;-81
2021/04/15 02:12:27;;;;;;;11.10;9.90;;;6.70;95.30;;;;;;5033396;28;20971;-81
2021/04/15 02:15:01;;;;;;;12.27;11.10;;;6.70;95.50;;;;;;5032820;28;20428;-80
2021/04/15 02:17:32;;;;;;;11.80;10.70;;;6.70;95.70;;;;;;5032333;28;20805;-80
2021/04/15 02:19:59;;;;;;;11.48;10.38;;;6.80;95.60;;;;;;5034171;28;20405;-80
2021/04/15 02:22:49;;;;;;;11.93;10.07;;;6.80;95.30;;;;;;5033349;28;20262;-80
2021/04/15 02:25:23;;;;;;;10.70;9.53;;;6.80;95.30;;;;;;5048872;28;20282;-83
2021/04/15 02:28:28;;;;;;;12.40;10.63;;;6.80;95.40;;;;;;5033010;28;20854;-80
2021/04/15 02:31:20;;;;;;;11.70;10.60;;;6.80;95.40;;;;;;5032354;28;20425;-80
2021/04/15 02:33:49;;;;;;;11.20;10.10;;;6.70;95.10;;;;;;5029539;28;20465;-79
2021/04/15 02:36:16;;;;;;;12.20;11.00;;;6.80;94.90;;;;;;5049009;28;20442;-83
2021/04/15 02:38:50;;;;;;;11.75;10.55;;;6.80;94.70;;;;;;5048976;28;20452;-79
2021/04/15 02:41:21;;;;;;;13.52;11.60;;;6.70;94.40;;;;;;5033527;28;20166;-84
2021/04/15 02:44:00;;;;;;;12.43;10.63;;;6.70;94.40;;;;;;5033970;28;20178;-80
2021/04/15 02:46:47;;;;;;;12.63;11.52;;;6.60;94.50;;;;;;5048177;28;20435;-79
2021/04/15 02:49:17;;;;;;;12.57;11.27;;;6.60;94.40;;;;;;5033446;28;20179;-81
2021/04/15 02:52:01;;;;;;;12.20;11.10;;;6.50;94.00;;;;;;5033734;28;20206;-79
2021/04/15 02:54:33;;;;;;;13.15;11.82;;;6.50;94.10;;;;;;5032850;28;20174;-80
2021/04/15 02:57:25;;;;;;;10.85;9.73;;;6.50;94.20;;;;;;5032748;28;20186;-80
2021/04/15 03:00:08;;;;;;;12.85;11.20;;;6.40;94.10;;;;;;5031405;28;20191;-80
2021/04/15 03:02:40;;;;;;;16.23;13.05;;;6.30;94.20;;;;;;5031536;28;20179;-80
2021/04/15 03:05:27;;;;;;;13.10;11.70;;;6.40;94.50;;;;;;5033585;28;20202;-79
2021/04/15 03:07:58;;;;;;;12.25;10.73;;;6.40;94.60;;;;;;5033582;28;20193;-80
2021/04/15 03:10:44;;;;;;;12.07;10.88;;;6.50;94.40;;;;;;5032816;28;20165;-82
2021/04/15 03:13:41;;;;;;;12.57;11.13;;;6.40;94.30;;;;;;5031981;28;20224;-88
2021/04/15 03:16:07;;;;;;;13.00;11.68;;;6.40;94.20;;;;;;5032678;28;20175;-89
2021/04/15 03:18:45;;;;;;;13.13;11.00;;;6.40;94.30;;;;;;5032655;28;20189;-88
2021/04/15 03:21:42;;;;;;;12.18;10.98;;;6.30;94.30;;;;;;5033554;28;20464;-88
2021/04/15 03:24:23;;;;;;;12.82;10.88;;;6.30;94.20;;;;;;5030634;28;20172;-88
2021/04/15 03:27:24;;;;;;;14.75;12.55;;;6.30;94.10;;;;;;5012241;28;20230;-87
2021/04/15 03:30:03;;;;;;;12.85;11.40;;;6.20;94.10;;;;;;5012906;28;20180;-85
2021/04/15 03:32:45;;;;;;;12.77;11.48;;;6.20;94.10;;;;;;5011217;28;20513;-87
2021/04/15 03:35:46;;;;;;;12.32;11.10;;;6.10;94.00;;;;;;5013544;28;20526;-85
2021/04/15 03:38:23;;;;;;;13.52;12.13;;;6.10;94.20;;;;;;5011811;28;20182;-85
2021/04/15 03:40:58;;;;;;;13.57;12.18;;;6.10;94.10;;;;;;5013104;28;20168;-85
2021/04/15 03:43:38;;;;;;;14.55;12.98;;;6.00;94.10;;;;;;5012189;28;20524;-85
2021/04/15 03:46:18;;;;;;;16.70;14.80;;;6.10;94.20;;;;;;5013069;28;20596;-85
2021/04/15 03:48:57;;;;;;;14.27;12.88;;;6.00;94.40;;;;;;5011706;28;20202;-85
2021/04/15 03:51:35;;;;;;;14.98;13.48;;;6.00;94.50;;;;;;5012259;28;20574;-85
2021/04/15 03:54:04;;;;;;;14.73;12.65;;;5.90;94.40;;;;;;5025472;28;20216;-84
2021/04/15 03:56:48;;;;;;;15.73;14.13;;;5.90;94.00;;;;;;5031660;28;20205;-85
2021/04/15 03:59:35;;;;;;;13.20;11.70;;;5.90;94.20;;;;;;5032793;28;20170;-85
2021/04/15 04:02:06;;;;;;;15.30;13.57;;;5.80;94.20;;;;;;5032741;28;20237;-85
2021/04/15 04:04:54;;;;;;;13.45;11.63;;;5.80;94.40;;;;;;5031781;28;20167;-85
2021/04/15 04:07:27;;;;;;;13.68;11.50;;;5.80;94.50;;;;;;5031527;28;20217;-86
2021/04/15 04:10:01;;;;;;;15.18;12.18;;;5.80;94.60;;;;;;5012904;28;20221;-85
2021/04/15 04:12:34;;;;;;;14.80;12.40;;;5.80;94.40;;;;;;5012104;28;20604;-86
2021/04/15 04:15:15;;;;;;;12.55;11.45;;;5.70;94.20;;;;;;5013170;28;20178;-85
2021/04/15 04:18:03;;;;;;;14.77;13.23;;;5.80;94.20;;;;;;5022504;28;20175;-85
2021/04/15 04:20:31;;;;;;;12.85;11.50;;;5.70;94.10;;;;;;5011728;28;20504;-85
2021/04/15 04:23:12;;;;;;;13.52;11.77;;;5.60;94.10;;;;;;5029659;28;20175;-85
2021/04/15 04:26:03;;;;;;;14.40;12.90;;;5.60;94.20;;;;;;5030353;28;20233;-85
2021/04/15 04:28:41;;;;;;;14.93;13.45;;;5.60;94.40;;;;;;5047325;28;20167;-85
2021/04/15 04:31:38;;;;;;;14.15;12.77;;;5.60;94.50;;;;;;5032696;28;20174;-84
2021/04/15 04:34:06;;;;;;;13.00;11.68;;;5.60;94.70;;;;;;5012171;28;20227;-84
2021/04/15 04:36:34;;;;;;;14.10;11.52;;;5.60;94.40;;;;;;5011519;28;20175;-84
2021/04/15 04:39:01;;;;;;;13.93;12.60;;;5.60;94.20;;;;;;5024588;28;20341;-85
2021/04/15 04:41:34;;;;;;;18.50;11.73;;;5.50;94.10;;;;;;5031686;28;20261;-85
2021/04/15 04:44:06;;;;;;;12.73;11.52;;;5.50;94.40;;;;;;5035102;28;20175;-84
2021/04/15 04:46:43;;;;;;;13.38;12.18;;;5.50;94.50;;;;;;5034897;28;20195;-84
2021/04/15 04:49:31;;;;;;;13.93;11.80;;;5.50;94.20;;;;;;5035165;28;20163;-84
2021/04/15 04:52:23;;;;;;;13.43;12.20;;;5.40;94.40;;;;;;5036079;28;20713;-84
2021/04/15 04:54:49;;;;;;;16.52;11.48;;;5.40;94.20;;;;;;5032064;28;20243;-83
2021/04/15 04:57:18;;;;;;;13.00;11.73;;;5.40;94.40;;;;;;5035985;28;20566;-85
2021/04/15 05:00:04;;;;;;;11.80;10.60;;;5.40;94.50;;;;;;5048024;28;20178;-79
2021/04/15 05:02:30;;;;;;;14.55;13.15;;;5.40;94.70;;;;;;5032340;28;20274;-81
2021/04/15 05:05:08;;;;;;;14.00;12.50;;;5.40;95.10;;;;;;5033926;28;20713;-79
2021/04/15 05:07:37;;;;;;;13.70;11.80;;;5.40;95.10;;;;;;5050530;28;20274;-80
2021/04/15 05:10:04;;;;;;;16.95;15.23;;;5.40;95.00;;;;;;5035543;28;20236;-80
2021/04/15 05:12:34;;;;;;;14.77;13.15;;;5.40;95.30;;;;;;5050729;28;20181;-81
2021/04/15 05:15:00;;;;;;;16.98;15.48;;;5.50;95.50;;;;;;5036087;28;20179;-81
2021/04/15 05:17:37;;;;;;;14.77;13.38;;;5.50;95.50;;;;;;5050559;28;20543;-86
2021/04/15 05:20:07;;;;;;;18.33;14.38;;;5.50;95.50;;;;;;5051391;28;20155;-80
2021/04/15 05:22:39;;;;;;;14.38;12.77;;;5.50;95.60;;;;;;5034876;28;20657;-81
2021/04/15 05:25:10;;;;;;;15.90;14.50;;;5.50;95.60;;;;;;5035467;28;20198;-82
2021/04/15 05:27:39;;;;;;;16.23;14.65;;;5.50;95.70;;;;;;5034854;28;20533;-88
2021/04/15 05:30:23;;;;;;;13.82;11.30;;;5.60;95.70;;;;;;5030778;28;20170;-89
2021/04/15 05:32:50;;;;;;;15.32;11.88;;;5.60;95.60;;;;;;5030276;28;20167;-88
2021/04/15 05:35:23;;;;;;;14.80;11.15;;;5.60;95.50;;;;;;5046706;28;20267;-86
2021/04/15 05:37:52;;;;;;;13.18;11.65;;;5.60;95.50;;;;;;5014208;28;20191;-84
2021/04/15 05:40:18;;;;;;;13.15;11.70;;;5.60;95.50;;;;;;5030124;28;20174;-80
2021/04/15 05:43:06;;;;;;;13.35;11.95;;;5.70;95.70;;;;;;5048834;28;20190;-88
2021/04/15 05:45:33;;;;;;;16.73;14.95;;;5.70;95.90;;;;;;5033734;28;20218;-76
2021/04/15 05:48:01;;;;;;;14.38;11.88;;;5.70;96.20;;;;;;5021164;28;20188;-75
2021/04/15 05:50:44;;;;;;;15.52;13.77;;;5.70;96.20;;;;;;5034176;28;20300;-87
2021/04/15 05:53:18;;;;;;;15.73;12.82;;;5.80;96.20;;;;;;5034097;28;20166;-74
2021/04/15 05:56:00;;;;;;;16.50;14.88;;;5.80;96.00;;;;;;5034200;28;20186;-84
2021/04/15 05:58:30;;;;;;;15.10;13.60;;;5.90;96.20;;;;;;5033228;28;20183;-80
2021/04/15 06:01:20;;;;;;;16.20;12.98;;;5.90;96.10;;;;;;5034779;28;20245;-82
2021/04/15 06:03:54;;;;;;;16.23;12.88;;;5.90;96.10;;;;;;5019361;28;20203;-87
2021/04/15 06:06:27;;;;;;;17.38;15.38;;;5.90;96.20;;;;;;5014912;28;20196;-79
2021/04/15 06:08:54;;;;;;;14.10;12.60;;;6.00;96.20;;;;;;5034435;28;20611;-77
2021/04/15 06:11:48;;;;;;;15.85;14.15;;;6.10;96.20;;;;;;5034767;28;20171;-77
2021/04/15 06:14:31;;;;;;;15.93;13.27;;;6.20;96.20;;;;;;5024157;28;20219;-80
2021/04/15 06:17:28;;;;;;;16.08;14.38;;;6.20;95.70;;;;;;5014854;28;20563;-80
2021/04/15 06:20:08;;;;;;;15.00;13.30;;;6.30;95.70;;;;;;5014637;28;20628;-83
2021/04/15 06:22:40;;;;;;;15.33;13.73;;;6.40;95.50;;;;;;5016776;28;20643;-76
2021/04/15 06:25:19;;;;;;;17.85;15.52;;;6.40;95.60;;;;;;5024283;28;20461;-83
2021/04/15 06:27:48;;;;;;;14.63;13.05;;;6.50;95.70;;;;;;5025096;28;20618;-75
2021/04/15 06:30:22;;;;;;;17.92;16.20;;;6.50;95.50;;;;;;5015553;28;20175;-75
2021/04/15 06:32:59;;;;;;;15.75;14.05;;;6.60;95.60;;;;;;5014825;28;20173;-75
2021/04/15 06:35:35;;;;;;;16.33;14.60;;;6.70;95.80;;;;;;5025177;28;20214;-80
2021/04/15 06:38:10;;;;;;;16.85;13.95;;;6.70;95.80;;;;;;5022022;28;20778;-76
2021/04/15 06:41:07;;;;;;;13.83;12.33;;;6.70;95.90;;;;;;5027533;28;20210;-80
2021/04/15 06:43:58;;;;;;;17.70;14.43;;;6.80;95.90;;;;;;5030900;28;20422;-81
2021/04/15 06:46:40;;;;;;;19.20;13.07;;;6.90;95.70;;;;;;5040408;28;20445;-82
2021/04/15 06:49:17;;;;;;;15.03;13.53;;;7.00;95.70;;;;;;5047578;28;20411;-89
2021/04/15 06:52:12;;;;;;;17.83;16.13;;;7.00;95.30;;;;;;5012445;28;20404;-76
2021/04/15 06:54:47;;;;;;;18.10;16.20;;;7.10;95.20;;;;;;5018250;28;20415;-77
2021/04/15 06:57:19;;;;;;;15.90;14.30;;;7.20;95.50;;;;;;5019302;28;21126;-79
2021/04/15 07:00:10;;;;;;;23.23;17.20;;;7.30;95.60;;;;;;5023694;28;20415;-74
2021/04/15 07:03:10;;;;;;;16.50;14.50;;;7.40;95.20;;;;;;5031000;28;20430;-74
2021/04/15 07:05:51;;;;;;;19.43;17.50;;;7.50;95.00;;;;;;5014482;28;20437;-74
2021/04/15 07:08:46;;;;;;;18.33;14.83;;;7.60;95.50;;;;;;5017611;28;20409;-74
2021/04/15 07:11:49;;;;;;;17.93;15.80;;;7.70;94.80;;;;;;5023650;28;20416;-73
2021/04/15 07:14:59;;;;;;;18.93;17.00;;;7.70;94.80;;;;;;5031825;28;20540;-73
2021/04/15 07:18:02;;;;;;;16.77;15.03;;;7.80;95.20;;;;;;5033052;28;20434;-73
2021/04/15 07:20:53;;;;;;;17.67;15.70;;;7.90;95.40;;;;;;5016393;28;20391;-74
2021/04/15 07:23:25;;;;;;;17.43;15.83;;;7.90;95.00;;;;;;5013584;28;20914;-75
2021/04/15 07:26:35;;;;;;;16.33;14.63;;;8.00;94.60;;;;;;5028792;28;20463;-74
2021/04/15 07:29:26;;;;;;;15.43;13.77;;;8.10;94.20;;;;;;5028452;28;20407;-74
2021/04/15 07:32:07;;;;;;;16.53;14.83;;;8.10;94.70;;;;;;5027174;28;20400;-83
2021/04/15 07:34:42;;;;;;;12.77;11.27;;;8.20;93.90;;;;;;5025210;28;20457;-79
2021/04/15 07:37:39;;;;;;;19.30;12.50;;;8.20;93.40;;;;;;5014580;28;20402;-75
2021/04/15 07:40:20;;;;;;;15.60;13.67;;;8.40;93.70;;;;;;5022636;28;20463;-74
2021/04/15 07:42:49;;;;;;;12.10;10.90;;;8.50;93.20;;;;;;5012366;28;20401;-76
2021/04/15 07:45:33;;;;;;;12.47;11.20;;;8.40;93.30;;;;;;5014784;28;20434;-74
2021/04/15 07:48:34;;;;;;;12.27;11.17;;;8.30;92.80;;;;;;5012878;28;20432;-75
2021/04/15 07:51:28;;;;;;;16.30;10.80;;;7.70;93.10;;;;;;5032433;28;20505;-74
2021/04/15 07:54:31;;;;;;;11.10;9.90;;;7.40;93.90;;;;;;5030801;28;20650;-75
2021/04/15 07:57:29;;;;;;;9.00;8.10;;;7.70;94.80;;;;;;5025286;28;20423;-74
2021/04/15 08:00:26;;;;;;;9.60;8.60;;;7.80;93.80;;;;;;5012237;28;20460;-75
2021/04/15 08:02:53;;;;;;;10.87;7.47;;;8.10;93.10;;;;;;5021955;28;20461;-75
2021/04/15 08:05:42;;;;;;;13.50;10.10;;;8.30;93.30;;;;;;5041688;28;20540;-75
2021/04/15 08:08:25;;;;;;;9.73;8.30;;;8.20;92.20;;;;;;5024009;28;20852;-75
2021/04/15 08:11:09;;;;;;;9.10;8.20;;;8.50;92.30;;;;;;5028883;28;20484;-77
2021/04/15 08:13:35;;;;;;;9.27;8.37;;;8.70;91.60;;;;;;5022291;28;20428;-84
2021/04/15 08:16:45;;;;;;;9.53;7.13;;;8.80;90.90;;;;;;5028280;28;20444;-75
2021/04/15 08:19:46;;;;;;;8.60;7.67;;;8.90;90.60;;;;;;5012796;28;20407;-75
2021/04/15 08:22:48;;;;;;;9.27;8.47;;;9.00;87.10;;;;;;5018600;28;20466;-75
2021/04/15 08:25:26;;;;;;;8.57;7.67;;;9.00;89.00;;;;;;5020330;28;20951;-76
2021/04/15 08:28:14;;;;;;;8.93;7.80;;;9.20;87.70;;;;;;5029988;28;20397;-76
2021/04/15 08:31:04;;;;;;;7.87;7.10;;;9.50;90.50;;;;;;5020586;28;20417;-89
2021/04/15 08:33:53;;;;;;;9.97;8.97;;;9.60;86.00;;;;;;5026894;28;20461;-76
2021/04/15 08:36:25;;;;;;;6.93;6.03;;;9.90;86.50;;;;;;5012554;28;20768;-80
2021/04/15 08:39:01;;;;;;;9.23;8.33;;;10.20;84.80;;;;;;5018198;28;20410;-85
2021/04/15 08:42:02;;;;;;;9.13;6.40;;;10.40;82.80;;;;;;5026619;28;20424;-76
2021/04/15 08:44:56;;;;;;;6.77;6.17;;;10.30;78.80;;;;;;5004699;28;20434;-78
2021/04/15 08:47:34;;;;;;;7.77;6.77;;;10.30;80.30;;;;;;5023291;28;20895;-77
2021/04/15 08:50:20;;;;;;;6.67;5.93;;;10.50;84.90;;;;;;5025017;28;20417;-84
2021/04/15 08:52:59;;;;;;;6.03;4.97;;;10.70;76.70;;;;;;5021631;28;20418;-82
2021/04/15 08:55:39;;;;;;;6.20;4.30;;;10.80;72.50;;;;;;5012500;28;20416;-86
2021/04/15 08:58:23;;;;;;;5.47;5.03;;;10.80;73.10;;;;;;5012691;28;20399;-92
2021/04/15 09:01:00;;;;;;;4.73;4.33;;;10.80;71.00;;;;;;5012479;28;20525;-92
2021/04/15 09:03:41;;;;;;;5.77;5.03;;;10.80;73.00;;;;;;5019182;28;20763;-92
2021/04/15 09:06:39;;;;;;;5.37;4.97;;;10.70;71.70;;;;;;5040215;28;20446;-92
2021/04/15 09:09:42;;;;;;;4.07;3.57;;;10.90;74.30;;;;;;5020136;28;20897;-92
2021/04/15 09:12:25;;;;;;;5.50;5.10;;;10.90;69.70;;;;;;5021364;28;20411;-92
2021/04/15 09:15:12;;;;;;;6.37;5.77;;;11.20;74.90;;;;;;5010746;28;20423;-92
2021/04/15 09:18:12;;;;;;;8.57;5.67;;;11.20;69.20;;;;;;5011986;28;20398;-84
2021/04/15 09:20:46;;;;;;;5.10;4.60;;;10.90;68.80;;;;;;5031241;28;20463;-82
2021/04/15 09:23:31;;;;;;;7.50;4.17;;;11.00;70.60;;;;;;5014547;28;20403;-91
2021/04/15 09:26:02;;;;;;;6.50;5.67;;;11.00;68.60;;;;;;5031057;28;20955;-90
2021/04/15 09:28:31;;;;;;;6.30;4.57;;;11.30;67.50;;;;;;5030763;28;20449;-90
2021/04/15 09:31:12;;;;;;;7.00;5.53;;;11.30;66.50;;;;;;5028717;28;20434;-91
2021/04/15 09:33:59;;;;;;;6.67;4.97;;;11.00;68.00;;;;;;5033848;28;20456;-84
2021/04/15 09:36:56;;;;;;;6.30;4.97;;;10.80;67.90;;;;;;5036221;28;20432;-91
2021/04/15 09:39:33;;;;;;;4.07;3.77;;;10.80;66.50;;;;;;5024711;28;20947;-89
2021/04/15 09:42:16;;;;;;;4.87;4.47;;;10.70;67.20;;;;;;5032758;28;21058;-90
2021/04/15 09:44:51;;;;;;;6.67;6.17;;;11.00;66.30;;;;;;5015035;28;20423;-85
2021/04/15 09:47:58;;;;;;;6.27;5.77;;;11.00;68.00;;;;;;5024874;28;20431;-94
2021/04/15 09:50:48;;;;;;;6.87;4.90;;;11.10;66.30;;;;;;5035423;28;20413;-94
2021/04/15 09:53:39;;;;;;;6.40;5.90;;;11.10;67.20;;;;;;5050607;28;20429;-93
2021/04/15 09:56:23;;;;;;;7.70;7.10;;;10.90;67.10;;;;;;5035397;28;20413;-93
2021/04/15 09:59:22;;;;;;;7.30;6.60;;;11.00;66.80;;;;;;5034581;28;20410;-91
2021/04/15 10:01:55;;;;;;;9.10;8.37;;;11.20;68.00;;;;;;5047522;28;20898;-91
2021/04/15 10:04:50;;;;;;;7.90;7.10;;;11.50;73.90;;;;;;5034633;28;20403;-93
2021/04/15 10:07:22;;;;;;;7.70;7.00;;;12.00;72.00;;;;;;5035780;28;20492;-93
2021/04/15 10:10:17;;;;;;;8.20;7.50;;;12.50;68.40;;;;;;5034888;28;20425;-94
2021/04/15 10:13:06;;;;;;;6.83;6.43;;;12.40;61.70;;;;;;5034834;28;20420;-83
2021/04/15 10:15:37;;;;;;;8.00;7.30;;;11.90;59.70;;;;;;5038538;28;20471;-94
2021/04/15 10:18:21;;;;;;;8.47;7.57;;;12.20;63.80;;;;;;5030517;28;20448;-85
2021/04/15 10:20:55;;;;;;;7.27;6.67;;;12.70;68.80;;;;;;5047758;28;20413;-91
2021/04/15 10:23:49;;;;;;;7.63;6.87;;;13.00;62.60;;;;;;5028582;28;20457;-90
2021/04/15 10:26:23;;;;;;;6.27;5.67;;;13.30;63.00;;;;;;5021870;28;20453;-86
2021/04/15 10:28:59;;;;;;;6.17;5.57;;;13.20;57.80;;;;;;5018608;28;20930;-88
2021/04/15 10:31:41;;;;;;;8.10;6.00;;;13.00;57.60;;;;;;5016122;28;20398;-90
2021/04/15 10:34:55;;;;;;;7.97;7.27;;;12.80;57.30;;;;;;5028947;28;20467;-89
2021/04/15 10:37:41;;;;;;;7.30;6.60;;;12.70;59.00;;;;;;5014574;28;20755;-90
2021/04/15 10:40:51;;;;;;;9.00;8.10;;;12.40;60.00;;;;;;5013576;28;20402;-90
2021/04/15 10:43:26;;;;;;;7.97;7.30;;;12.30;61.40;;;;;;4973109;28;20427;-90
2021/04/15 10:46:31;;;;;;;9.10;8.40;;;12.30;62.40;;;;;;4989345;28;20823;-90
2021/04/15 10:48:57;;;;;;;8.20;7.50;;;12.50;65.60;;;;;;5014357;28;20409;-90
2021/04/15 10:51:45;;;;;;;9.10;8.40;;;12.80;63.80;;;;;;5015129;28;20761;-90
2021/04/15 10:54:24;;;;;;;9.50;8.70;;;12.80;60.50;;;;;;5008516;28;20425;-91
2021/04/15 10:56:53;;;;;;;9.43;8.70;;;13.00;64.30;;;;;;5028739;28;20414;-89
2021/04/15 10:59:39;;;;;;;20.10;15.27;;;13.30;65.70;;;;;;5028276;28;20425;-90
2021/04/15 11:02:19;;;;;;;11.87;10.80;;;13.50;63.10;;;;;;5023641;28;20414;-89
2021/04/15 11:04:45;;;;;;;10.27;9.47;;;13.60;58.90;;;;;;5015094;28;20411;-86
2021/04/15 11:07:27;;;;;;;10.33;9.57;;;13.70;60.10;;;;;;5013338;28;20408;-90
2021/04/15 11:09:56;;;;;;;10.77;9.77;;;14.10;63.00;;;;;;5013729;28;20404;-88
2021/04/15 11:12:29;;;;;;;11.10;10.07;;;13.80;58.10;;;;;;5013172;28;20768;-90
2021/04/15 11:15:00;;;;;;;11.20;10.40;;;13.80;60.20;;;;;;4995892;28;20433;-90
2021/04/15 11:17:43;;;;;;;10.30;9.20;;;13.10;57.70;;;;;;5014262;28;20435;-91
2021/04/15 11:20:26;;;;;;;11.27;10.17;;;13.30;62.30;;;;;;5013601;28;20410;-91
2021/04/15 11:23:00;;;;;;;11.67;10.67;;;13.60;62.10;;;;;;5013368;28;20411;-91
2021/04/15 11:25:47;;;;;;;12.30;11.23;;;13.80;59.50;;;;;;5013892;28;20511;-88
2021/04/15 11:28:18;;;;;;;10.47;9.67;;;14.00;58.70;;;;;;5012516;28;20463;-88
2021/04/15 11:30:46;;;;;;;11.57;10.20;;;14.00;57.30;;;;;;5014029;28;20423;-88
2021/04/15 11:33:34;;;;;;;10.17;9.27;;;13.80;57.20;;;;;;5013002;28;20450;-88
2021/04/15 11:36:04;;;;;;;10.80;9.90;;;13.20;55.40;;;;;;5012944;28;20418;-89
2021/04/15 11:38:30;;;;;;;11.30;10.30;;;12.80;57.60;;;;;;5013274;28;20530;-91
2021/04/15 11:40:58;;;;;;;11.40;10.30;;;12.70;59.10;;;;;;5013089;28;20496;-91
2021/04/15 11:43:35;;;;;;;9.60;8.70;;;12.60;58.80;;;;;;5013406;28;20476;-90
2021/04/15 11:46:21;;;;;;;9.43;8.63;;;12.70;60.10;;;;;;5027838;28;20461;-90
2021/04/15 11:49:19;;;;;;;9.47;8.40;;;13.00;59.20;;;;;;5013111;28;20446;-88
2021/04/15 11:52:05;;;;;;;8.17;7.30;;;13.20;58.60;;;;;;4994972;28;20426;-91
2021/04/15 11:54:36;;;;;;;8.33;7.53;;;13.50;58.70;;;;;;5013090;28;20395;-91
2021/04/15 11:57:36;;;;;;;8.23;7.43;;;13.80;57.10;;;;;;5012178;28;20420;-90
2021/04/15 12:00:05;;;;;;;9.10;8.40;;;13.90;56.50;;;;;;5012378;28;20499;-88
2021/04/15 12:02:37;;;;;;;7.80;7.13;;;14.00;58.50;;;;;;5011844;28;20421;-88
2021/04/15 12:05:21;;;;;;;9.40;8.60;;;14.30;59.10;;;;;;5012604;28;20455;-88
2021/04/15 12:08:23;;;;;;;7.97;7.30;;;14.50;57.70;;;;;;5013116;28;20399;-85
2021/04/15 12:11:27;;;;;;;6.87;6.30;;;14.40;55.70;;;;;;5027710;28;20938;-84
2021/04/15 12:14:01;;;;;;;6.37;5.87;;;14.50;54.80;;;;;;5012200;28;20927;-87
2021/04/15 12:16:27;;;;;;;5.80;5.40;;;14.70;54.40;;;;;;5013051;28;20421;-90
2021/04/15 12:19:10;;;;;;;6.33;5.77;;;14.70;55.60;;;;;;5012311;28;20983;-90
2021/04/15 12:21:49;;;;;;;6.20;5.70;;;14.80;54.10;;;;;;5030551;28;20187;-90
2021/04/15 12:24:19;;;;;;;6.87;6.27;;;14.80;53.50;;;;;;5015762;28;20476;-90
2021/04/15 12:27:00;;;;;;;6.43;5.93;;;14.70;51.30;;;;;;5014025;28;20536;-90
2021/04/15 12:29:38;;;;;;;6.33;5.70;;;14.00;49.30;;;;;;5012820;28;20458;-89
2021/04/15 12:32:32;;;;;;;6.10;5.50;;;13.50;50.70;;;;;;5012480;28;20398;-90
2021/04/15 12:35:25;;;;;;;5.73;5.33;;;13.60;52.00;;;;;;5011715;28;20480;-90
2021/04/15 12:38:21;;;;;;;6.07;5.47;;;14.00;54.10;;;;;;5012560;28;20946;-87
2021/04/15 12:40:51;;;;;;;6.43;5.80;;;14.50;56.50;;;;;;5026542;28;20784;-90
2021/04/15 12:43:30;;;;;;;7.10;6.60;;;15.00;55.30;;;;;;5012224;28;20425;-91
2021/04/15 12:46:00;;;;;;;8.60;7.83;;;15.30;57.20;;;;;;5011739;28;20463;-90
2021/04/15 12:48:37;;;;;;;7.33;6.60;;;15.20;57.20;;;;;;5012524;28;20418;-90
2021/04/15 12:51:05;;;;;;;6.83;6.33;;;15.00;56.50;;;;;;5011836;28;20420;-91
2021/04/15 12:53:39;;;;;;;8.30;7.50;;;15.10;56.70;;;;;;5012209;28;20472;-90
2021/04/15 12:56:06;;;;;;;8.67;7.93;;;15.00;58.00;;;;;;5011814;28;20796;-90
2021/04/15 12:58:32;;;;;;;7.30;6.67;;;14.80;55.50;;;;;;5011929;28;20418;-90
2021/04/15 13:01:00;;;;;;;6.53;6.03;;;14.60;56.80;;;;;;5010063;28;20475;-90
2021/04/15 13:03:36;;;;;;;8.27;7.50;;;14.40;57.00;;;;;;5013152;28;20181;-90
2021/04/15 13:06:22;;;;;;;7.07;6.40;;;14.30;56.80;;;;;;5014413;28;20450;-90
2021/04/15 13:08:51;;;;;;;7.27;6.67;;;14.10;55.10;;;;;;5015813;28;20426;-90
2021/04/15 13:11:17;;;;;;;8.47;6.10;;;13.80;54.90;;;;;;5016118;28;20415;-90
2021/04/15 13:13:45;;;;;;;7.20;6.57;;;13.60;56.60;;;;;;5016306;28;20895;-90
2021/04/15 13:16:44;;;;;;;9.20;8.40;;;13.40;58.50;;;;;;5015254;28;20226;-90
2021/04/15 13:19:09;;;;;;;6.93;6.40;;;13.60;60.20;;;;;;5015268;28;20414;-85
2021/04/15 13:21:54;;;;;;;4.33;4.00;;;13.60;57.50;;;;;;5015903;28;20408;-84
2021/04/15 13:24:44;;;;;;;4.77;4.47;;;14.10;79.40;;;;;;5015845;28;20166;-85
2021/04/15 13:27:34;;;;;;;6.27;4.60;;;14.90;70.80;;;;;;5014756;28;20421;-84
2021/04/15 13:30:28;;;;;;;4.30;4.00;;;15.70;63.60;;;;;;5014673;28;20507;-84
2021/04/15 13:33:09;;;;;;;5.40;4.50;;;16.50;59.00;;;;;;5015029;28;20464;-81
2021/04/15 13:36:04;;;;;;;6.37;5.83;;;16.90;56.70;;;;;;5015907;28;20414;-85
2021/04/15 13:38:34;;;;;;;7.23;6.47;;;17.30;54.00;;;;;;5017620;28;20479;-85
2021/04/15 13:41:09;;;;;;;5.80;5.30;;;17.50;52.50;;;;;;5015118;28;20763;-84
2021/04/15 13:43:40;;;;;;;5.70;5.13;;;17.80;52.10;;;;;;5015552;28;20461;-84